sensor_id;sensor_type;location;lat;lon;timestamp;temperature;humidity
17341;DHT22;8788;49.930;8.660;2022-11-15T04:05:42;11.40;99.90
17341;DHT22;8788;49.930;8.660;2022-11-15T04:08:28;11.40;99.90
17341;DHT22;8788;49.930;8.660;2022-11-15T04:11:13;11.40;99.90
17341;DHT22;8788;49.930;8.660;2022-11-15T04:13:59;11.50;99.90
17341;DHT22;8788;49.930;8.660;2022-11-15T04:16:45;11.50;99.90
17341;DHT22;8788;49.930;8.660;2022-11-15T04:19:30;11.60;99.90
17341;DHT22;8788;49.930;8.660;2022-11-15T04:22:35;11.60;99.90
17341;DHT22;8788;49.930;8.660;2022-11-15T04:25:38;11.60;99.90
17341;DHT22;8788;49.930;8.660;2022-11-15T04:28:24;11.60;99.90
17341;DHT22;8788;49.930;8.660;2022-11-15T04:31:10;11.60;99.90
17341;DHT22;8788;49.930;8.660;2022-11-15T04:33:56;11.60;99.90
17341;DHT22;8788;49.930;8.660;2022-11-15T04:36:41;11.70;99.90
17341;DHT22;8788;49.930;8.660;2022-11-15T04:39:51;11.70;99.90
17341;DHT22;8788;49.930;8.660;2022-11-15T04:42:36;11.70;99.90
17341;DHT22;8788;49.930;8.660;2022-11-15T04:45:22;11.70;99.90
17341;DHT22;8788;49.930;8.660;2022-11-15T04:48:07;11.70;99.90
17341;DHT22;8788;49.930;8.660;2022-11-15T04:50:53;11.60;99.90
17341;DHT22;8788;49.930;8.660;2022-11-15T04:53:39;11.60;99.90
17341;DHT22;8788;49.930;8.660;2022-11-15T04:56:26;11.60;99.90
17341;DHT22;8788;49.930;8.660;2022-11-15T04:59:12;11.60;99.90
17341;DHT22;8788;49.930;8.660;2022-11-15T05:01:57;11.60;99.90
17341;DHT22;8788;49.930;8.660;2022-11-15T05:04:43;11.60;99.90
17341;DHT22;8788;49.930;8.660;2022-11-15T05:07:28;11.60;99.90
17341;DHT22;8788;49.930;8.660;2022-11-15T05:10:13;11.60;99.90
17341;DHT22;8788;49.930;8.660;2022-11-15T05:13:00;11.60;99.90
17341;DHT22;8788;49.930;8.660;2022-11-15T05:15:47;11.60;99.90
17341;DHT22;8788;49.930;8.660;2022-11-15T05:18:32;11.60;99.90
17341;DHT22;8788;49.930;8.660;2022-11-15T05:21:18;11.60;99.90
17341;DHT22;8788;49.930;8.660;2022-11-15T05:24:04;11.60;99.90
17341;DHT22;8788;49.930;8.660;2022-11-15T05:26:50;11.60;99.90
17341;DHT22;8788;49.930;8.660;2022-11-15T05:29:37;11.50;99.90
17341;DHT22;8788;49.930;8.660;2022-11-15T05:32:23;11.50;99.90
17341;DHT22;8788;49.930;8.660;2022-11-15T05:35:13;11.50;99.90
17341;DHT22;8788;49.930;8.660;2022-11-15T05:38:01;11.50;99.90
17341;DHT22;8788;49.930;8.660;2022-11-15T05:40:46;11.50;99.90
17341;DHT22;8788;49.930;8.660;2022-11-15T05:43:35;11.60;99.90
17341;DHT22;8788;49.930;8.660;2022-11-15T05:46:23;11.60;99.90
17341;DHT22;8788;49.930;8.660;2022-11-15T05:49:11;11.60;99.90
17341;DHT22;8788;49.930;8.660;2022-11-15T05:51:58;11.60;99.90
17341;DHT22;8788;49.930;8.660;2022-11-15T05:54:44;11.60;99.90
17341;DHT22;8788;49.930;8.660;2022-11-15T05:57:29;11.60;99.90
17341;DHT22;8788;49.930;8.660;2022-11-15T06:00:15;11.60;99.90
17341;DHT22;8788;49.930;8.660;2022-11-15T06:03:03;11.60;99.90
17341;DHT22;8788;49.930;8.660;2022-11-15T06:05:48;11.60;99.90
17341;DHT22;8788;49.930;8.660;2022-11-15T06:08:34;11.60;99.90
17341;DHT22;8788;49.930;8.660;2022-11-15T06:11:19;11.70;99.90
17341;DHT22;8788;49.930;8.660;2022-11-15T06:14:05;11.70;99.90
17341;DHT22;8788;49.930;8.660;2022-11-15T06:16:50;11.80;99.90
17341;DHT22;8788;49.930;8.660;2022-11-15T06:19:37;11.80;99.90
17341;DHT22;8788;49.930;8.660;2022-11-15T06:22:23;11.80;99.90
17341;DHT22;8788;49.930;8.660;2022-11-15T06:25:08;11.80;99.90
17341;DHT22;8788;49.930;8.660;2022-11-15T06:27:55;11.80;99.90
17341;DHT22;8788;49.930;8.660;2022-11-15T06:30:41;11.90;99.90
17341;DHT22;8788;49.930;8.660;2022-11-15T06:33:27;11.90;99.90
17341;DHT22;8788;49.930;8.660;2022-11-15T06:36:14;11.90;99.90
17341;DHT22;8788;49.930;8.660;2022-11-15T06:39:01;11.90;99.90
17341;DHT22;8788;49.930;8.660;2022-11-15T06:41:46;11.90;99.90
17341;DHT22;8788;49.930;8.660;2022-11-15T06:44:32;11.90;99.90
17341;DHT22;8788;49.930;8.660;2022-11-15T06:47:18;11.90;99.90
17341;DHT22;8788;49.930;8.660;2022-11-15T06:50:04;11.90;99.90
17341;DHT22;8788;49.930;8.660;2022-11-15T06:52:51;11.90;99.90
17341;DHT22;8788;49.930;8.660;2022-11-15T06:55:36;12.00;99.90
17341;DHT22;8788;49.930;8.660;2022-11-15T06:58:22;12.00;99.90
17341;DHT22;8788;49.930;8.660;2022-11-15T07:01:09;12.00;99.90
17341;DHT22;8788;49.930;8.660;2022-11-15T07:03:55;12.00;99.90
17341;DHT22;8788;49.930;8.660;2022-11-15T07:06:40;12.00;99.90
17341;DHT22;8788;49.930;8.660;2022-11-15T07:09:27;12.00;99.90
17341;DHT22;8788;49.930;8.660;2022-11-15T07:12:13;12.00;99.90
17341;DHT22;8788;49.930;8.660;2022-11-15T07:14:58;12.00;99.90
17341;DHT22;8788;49.930;8.660;2022-11-15T07:17:44;12.10;99.90
17341;DHT22;8788;49.930;8.660;2022-11-15T07:20:30;12.10;99.90
17341;DHT22;8788;49.930;8.660;2022-11-15T07:23:15;12.20;99.90
17341;DHT22;8788;49.930;8.660;2022-11-15T07:26:02;12.20;99.90
17341;DHT22;8788;49.930;8.660;2022-11-15T07:28:48;12.30;99.90
17341;DHT22;8788;49.930;8.660;2022-11-15T07:31:33;12.40;99.90
17341;DHT22;8788;49.930;8.660;2022-11-15T07:34:19;12.50;99.90
17341;DHT22;8788;49.930;8.660;2022-11-15T07:37:05;12.50;99.90
17341;DHT22;8788;49.930;8.660;2022-11-15T07:39:50;12.60;99.90
17341;DHT22;8788;49.930;8.660;2022-11-15T07:42:38;12.70;99.90
17341;DHT22;8788;49.930;8.660;2022-11-15T07:45:41;12.70;99.90
17341;DHT22;8788;49.930;8.660;2022-11-15T07:48:26;12.70;99.90
17341;DHT22;8788;49.930;8.660;2022-11-15T07:51:12;12.80;99.90
17341;DHT22;8788;49.930;8.660;2022-11-15T07:53:58;12.80;99.90
17341;DHT22;8788;49.930;8.660;2022-11-15T07:56:44;12.80;99.90
17341;DHT22;8788;49.930;8.660;2022-11-15T07:59:31;12.80;99.90
17341;DHT22;8788;49.930;8.660;2022-11-15T08:02:16;12.90;99.90
17341;DHT22;8788;49.930;8.660;2022-11-15T08:05:02;12.90;99.90
17341;DHT22;8788;49.930;8.660;2022-11-15T08:07:49;13.00;99.90
17341;DHT22;8788;49.930;8.660;2022-11-15T08:10:35;13.00;99.90
17341;DHT22;8788;49.930;8.660;2022-11-15T08:13:21;13.10;99.90
17341;DHT22;8788;49.930;8.660;2022-11-15T08:16:08;13.10;99.90
17341;DHT22;8788;49.930;8.660;2022-11-15T08:18:56;13.20;99.90
17341;DHT22;8788;49.930;8.660;2022-11-15T08:21:41;13.30;99.90
17341;DHT22;8788;49.930;8.660;2022-11-15T08:24:27;13.30;99.90
17341;DHT22;8788;49.930;8.660;2022-11-15T08:27:13;13.40;99.90
17341;DHT22;8788;49.930;8.660;2022-11-15T08:29:59;13.40;99.90
17341;DHT22;8788;49.930;8.660;2022-11-15T08:32:47;13.50;99.90
17341;DHT22;8788;49.930;8.660;2022-11-15T08:35:33;13.50;99.90
17341;DHT22;8788;49.930;8.660;2022-11-15T08:38:19;13.60;99.90
17341;DHT22;8788;49.930;8.660;2022-11-15T08:41:04;13.60;99.90
17341;DHT22;8788;49.930;8.660;2022-11-15T08:43:51;13.70;99.90
17341;DHT22;8788;49.930;8.660;2022-11-15T08:46:36;13.70;99.90
17341;DHT22;8788;49.930;8.660;2022-11-15T08:49:23;13.80;99.90
17341;DHT22;8788;49.930;8.660;2022-11-15T08:52:09;13.80;99.90
17341;DHT22;8788;49.930;8.660;2022-11-15T08:54:54;13.80;99.90
17341;DHT22;8788;49.930;8.660;2022-11-15T08:57:40;13.90;99.90
17341;DHT22;8788;49.930;8.660;2022-11-15T09:00:26;13.90;99.90
17341;DHT22;8788;49.930;8.660;2022-11-15T09:03:12;13.90;99.90
17341;DHT22;8788;49.930;8.660;2022-11-15T09:06:00;13.90;99.90
17341;DHT22;8788;49.930;8.660;2022-11-15T09:08:46;13.90;99.90
17341;DHT22;8788;49.930;8.660;2022-11-15T09:11:32;13.90;99.90
17341;DHT22;8788;49.930;8.660;2022-11-15T09:14:17;13.90;99.90
17341;DHT22;8788;49.930;8.660;2022-11-15T09:17:06;13.90;99.90
17341;DHT22;8788;49.930;8.660;2022-11-15T09:19:52;13.90;99.90
17341;DHT22;8788;49.930;8.660;2022-11-15T09:22:39;14.00;99.90
17341;DHT22;8788;49.930;8.660;2022-11-15T09:25:24;14.10;99.90
17341;DHT22;8788;49.930;8.660;2022-11-15T09:28:10;14.20;99.90
17341;DHT22;8788;49.930;8.660;2022-11-15T09:30:57;14.10;99.90
17341;DHT22;8788;49.930;8.660;2022-11-15T09:33:44;14.20;99.90
17341;DHT22;8788;49.930;8.660;2022-11-15T09:36:30;14.20;99.90
17341;DHT22;8788;49.930;8.660;2022-11-15T09:39:17;14.20;99.90
17341;DHT22;8788;49.930;8.660;2022-11-15T09:42:14;14.20;99.90
17341;DHT22;8788;49.930;8.660;2022-11-15T09:45:13;14.20;99.90
17341;DHT22;8788;49.930;8.660;2022-11-15T09:48:11;14.20;99.90
17341;DHT22;8788;49.930;8.660;2022-11-15T09:51:03;14.30;99.90
17341;DHT22;8788;49.930;8.660;2022-11-15T09:53:34;14.20;99.90
17341;DHT22;8788;49.930;8.660;2022-11-15T09:56:10;14.30;99.90
17341;DHT22;8788;49.930;8.660;2022-11-15T09:58:44;14.30;99.90
17341;DHT22;8788;49.930;8.660;2022-11-15T10:01:16;14.20;99.90
17341;DHT22;8788;49.930;8.660;2022-11-15T10:03:45;14.30;99.90
17341;DHT22;8788;49.930;8.660;2022-11-15T10:06:21;14.30;99.90
17341;DHT22;8788;49.930;8.660;2022-11-15T10:08:56;14.30;99.90
17341;DHT22;8788;49.930;8.660;2022-11-15T10:11:28;14.30;99.90
17341;DHT22;8788;49.930;8.660;2022-11-15T10:13:59;14.30;99.90
17341;DHT22;8788;49.930;8.660;2022-11-15T10:16:56;14.40;99.90
17341;DHT22;8788;49.930;8.660;2022-11-15T10:19:34;14.40;99.90
17341;DHT22;8788;49.930;8.660;2022-11-15T10:22:13;14.50;99.90
17341;DHT22;8788;49.930;8.660;2022-11-15T10:24:44;14.60;99.90
17341;DHT22;8788;49.930;8.660;2022-11-15T10:27:14;14.60;99.90
17341;DHT22;8788;49.930;8.660;2022-11-15T10:29:46;14.50;99.90
17341;DHT22;8788;49.930;8.660;2022-11-15T10:32:15;14.50;99.90
17341;DHT22;8788;49.930;8.660;2022-11-15T10:34:44;14.50;99.90
17341;DHT22;8788;49.930;8.660;2022-11-15T10:37:11;14.50;99.90
17341;DHT22;8788;49.930;8.660;2022-11-15T10:39:39;14.50;99.90
17341;DHT22;8788;49.930;8.660;2022-11-15T10:42:17;14.50;99.90
17341;DHT22;8788;49.930;8.660;2022-11-15T10:44:46;14.60;99.90
17341;DHT22;8788;49.930;8.660;2022-11-15T10:47:33;14.50;99.90
17341;DHT22;8788;49.930;8.660;2022-11-15T10:50:05;14.40;99.90
17341;DHT22;8788;49.930;8.660;2022-11-15T10:52:34;14.40;99.90
17341;DHT22;8788;49.930;8.660;2022-11-15T10:55:17;14.30;99.90
17341;DHT22;8788;49.930;8.660;2022-11-15T10:57:52;14.20;99.90
17341;DHT22;8788;49.930;8.660;2022-11-15T11:00:43;14.20;99.90
17341;DHT22;8788;49.930;8.660;2022-11-15T11:03:27;14.30;99.90
17341;DHT22;8788;49.930;8.660;2022-11-15T11:06:10;14.30;99.90
17341;DHT22;8788;49.930;8.660;2022-11-15T11:08:38;14.30;99.90
17341;DHT22;8788;49.930;8.660;2022-11-15T11:11:06;14.40;99.90
17341;DHT22;8788;49.930;8.660;2022-11-15T11:13:38;14.40;99.90
17341;DHT22;8788;49.930;8.660;2022-11-15T11:19:31;14.70;99.90
17341;DHT22;8788;49.930;8.660;2022-11-15T11:22:06;14.80;99.90
17341;DHT22;8788;49.930;8.660;2022-11-15T11:24:41;15.20;99.90
17341;DHT22;8788;49.930;8.660;2022-11-15T11:27:18;15.90;99.90
17341;DHT22;8788;49.930;8.660;2022-11-15T11:30:04;15.90;99.90
17341;DHT22;8788;49.930;8.660;2022-11-15T11:33:02;16.00;99.90
17341;DHT22;8788;49.930;8.660;2022-11-15T11:35:35;16.40;99.90
17341;DHT22;8788;49.930;8.660;2022-11-15T11:38:17;16.60;99.90
17341;DHT22;8788;49.930;8.660;2022-11-15T11:40:59;17.10;99.90
17341;DHT22;8788;49.930;8.660;2022-11-15T11:43:33;16.90;99.90
17341;DHT22;8788;49.930;8.660;2022-11-15T11:49:01;16.60;99.90
17341;DHT22;8788;49.930;8.660;2022-11-15T11:51:34;16.20;99.90
17341;DHT22;8788;49.930;8.660;2022-11-15T11:54:08;16.00;99.90
17341;DHT22;8788;49.930;8.660;2022-11-15T11:56:39;16.00;99.90
17341;DHT22;8788;49.930;8.660;2022-11-15T11:59:12;16.10;99.90
17341;DHT22;8788;49.930;8.660;2022-11-15T12:01:44;16.20;99.90
17341;DHT22;8788;49.930;8.660;2022-11-15T12:04:15;16.50;99.90
17341;DHT22;8788;49.930;8.660;2022-11-15T12:06:49;16.60;99.90
17341;DHT22;8788;49.930;8.660;2022-11-15T12:09:20;16.60;99.90
17341;DHT22;8788;49.930;8.660;2022-11-15T12:11:52;16.60;99.90
17341;DHT22;8788;49.930;8.660;2022-11-15T12:14:27;16.40;99.90
17341;DHT22;8788;49.930;8.660;2022-11-15T12:16:57;16.30;99.90
17341;DHT22;8788;49.930;8.660;2022-11-15T12:19:25;16.30;99.90
17341;DHT22;8788;49.930;8.660;2022-11-15T12:21:56;16.20;99.90
17341;DHT22;8788;49.930;8.660;2022-11-15T12:24:31;16.20;99.90
17341;DHT22;8788;49.930;8.660;2022-11-15T12:27:02;16.10;99.90
17341;DHT22;8788;49.930;8.660;2022-11-15T12:29:35;16.10;99.90
17341;DHT22;8788;49.930;8.660;2022-11-15T12:32:10;16.00;99.90
17341;DHT22;8788;49.930;8.660;2022-11-15T12:34:44;16.00;99.90
17341;DHT22;8788;49.930;8.660;2022-11-15T12:40:25;15.90;99.90
17341;DHT22;8788;49.930;8.660;2022-11-15T12:46:02;15.70;99.90
17341;DHT22;8788;49.930;8.660;2022-11-15T12:48:59;15.70;99.90
17341;DHT22;8788;49.930;8.660;2022-11-15T12:57:52;15.50;99.90
17341;DHT22;8788;49.930;8.660;2022-11-15T13:00:43;15.50;99.90
17341;DHT22;8788;49.930;8.660;2022-11-15T13:03:24;15.50;99.90
17341;DHT22;8788;49.930;8.660;2022-11-15T13:06:06;15.40;99.90
17341;DHT22;8788;49.930;8.660;2022-11-15T13:08:41;15.40;99.90
17341;DHT22;8788;49.930;8.660;2022-11-15T13:11:48;15.40;99.90
17341;DHT22;8788;49.930;8.660;2022-11-15T13:14:41;15.30;99.90
17341;DHT22;8788;49.930;8.660;2022-11-15T13:17:36;15.30;99.90
17341;DHT22;8788;49.930;8.660;2022-11-15T13:20:23;15.30;99.90
17341;DHT22;8788;49.930;8.660;2022-11-15T13:23:00;15.30;99.90
17341;DHT22;8788;49.930;8.660;2022-11-15T13:25:49;15.30;99.90
17341;DHT22;8788;49.930;8.660;2022-11-15T13:28:24;15.30;99.90
17341;DHT22;8788;49.930;8.660;2022-11-15T13:30:56;15.30;99.90
17341;DHT22;8788;49.930;8.660;2022-11-15T13:33:25;15.40;99.90
17341;DHT22;8788;49.930;8.660;2022-11-15T13:35:55;15.40;99.90
17341;DHT22;8788;49.930;8.660;2022-11-15T13:38:29;15.50;99.90
17341;DHT22;8788;49.930;8.660;2022-11-15T13:40:58;15.50;99.90
17341;DHT22;8788;49.930;8.660;2022-11-15T13:43:33;15.50;99.90
17341;DHT22;8788;49.930;8.660;2022-11-15T13:46:10;15.50;99.90
17341;DHT22;8788;49.930;8.660;2022-11-15T13:48:38;15.40;99.90
17341;DHT22;8788;49.930;8.660;2022-11-15T13:51:12;15.40;99.90
17341;DHT22;8788;49.930;8.660;2022-11-15T13:53:48;15.40;99.90
17341;DHT22;8788;49.930;8.660;2022-11-15T13:56:18;15.40;99.90
17341;DHT22;8788;49.930;8.660;2022-11-15T13:58:46;15.40;99.90
17341;DHT22;8788;49.930;8.660;2022-11-15T14:01:17;15.40;99.90
17341;DHT22;8788;49.930;8.660;2022-11-15T14:03:51;15.40;99.90
17341;DHT22;8788;49.930;8.660;2022-11-15T14:06:21;15.50;99.90
17341;DHT22;8788;49.930;8.660;2022-11-15T14:11:50;15.60;99.90
17341;DHT22;8788;49.930;8.660;2022-11-15T14:14:20;15.50;99.90
17341;DHT22;8788;49.930;8.660;2022-11-15T14:16:49;15.60;99.90
17341;DHT22;8788;49.930;8.660;2022-11-15T14:19:36;15.60;99.90
17341;DHT22;8788;49.930;8.660;2022-11-15T14:22:27;15.50;99.90
17341;DHT22;8788;49.930;8.660;2022-11-15T14:25:15;15.50;99.90
17341;DHT22;8788;49.930;8.660;2022-11-15T14:27:44;15.50;99.90
17341;DHT22;8788;49.930;8.660;2022-11-15T14:30:31;15.50;99.90
17341;DHT22;8788;49.930;8.660;2022-11-15T14:32:58;15.50;99.90
17341;DHT22;8788;49.930;8.660;2022-11-15T14:35:26;15.50;99.90
17341;DHT22;8788;49.930;8.660;2022-11-15T14:37:53;15.50;99.90
17341;DHT22;8788;49.930;8.660;2022-11-15T14:40:22;15.50;99.90
17341;DHT22;8788;49.930;8.660;2022-11-15T14:42:49;15.40;99.90
17341;DHT22;8788;49.930;8.660;2022-11-15T14:45:18;15.40;99.90
17341;DHT22;8788;49.930;8.660;2022-11-15T14:47:46;15.40;99.90
17341;DHT22;8788;49.930;8.660;2022-11-15T14:50:14;15.40;99.90
17341;DHT22;8788;49.930;8.660;2022-11-15T14:52:42;15.40;99.90
17341;DHT22;8788;49.930;8.660;2022-11-15T14:55:16;15.40;99.90
17341;DHT22;8788;49.930;8.660;2022-11-15T14:57:46;15.40;99.90
17341;DHT22;8788;49.930;8.660;2022-11-15T15:00:14;15.40;99.90
17341;DHT22;8788;49.930;8.660;2022-11-15T15:02:42;15.30;99.90
17341;DHT22;8788;49.930;8.660;2022-11-15T15:05:15;15.30;99.90
17341;DHT22;8788;49.930;8.660;2022-11-15T15:07:42;15.30;99.90
17341;DHT22;8788;49.930;8.660;2022-11-15T15:10:10;15.20;99.90
17341;DHT22;8788;49.930;8.660;2022-11-15T15:12:37;15.20;99.90
17341;DHT22;8788;49.930;8.660;2022-11-15T15:15:13;15.10;99.90
17341;DHT22;8788;49.930;8.660;2022-11-15T15:17:41;15.10;99.90
17341;DHT22;8788;49.930;8.660;2022-11-15T15:20:09;15.10;99.90
17341;DHT22;8788;49.930;8.660;2022-11-15T15:22:37;15.00;99.90
17341;DHT22;8788;49.930;8.660;2022-11-15T15:25:18;15.00;99.90
17341;DHT22;8788;49.930;8.660;2022-11-15T15:27:46;15.00;99.90
17341;DHT22;8788;49.930;8.660;2022-11-15T15:30:15;14.90;99.90
17341;DHT22;8788;49.930;8.660;2022-11-15T15:32:42;14.90;99.90
17341;DHT22;8788;49.930;8.660;2022-11-15T15:35:11;14.90;99.90
17341;DHT22;8788;49.930;8.660;2022-11-15T15:37:40;14.80;99.90
17341;DHT22;8788;49.930;8.660;2022-11-15T15:40:14;14.80;99.90
17341;DHT22;8788;49.930;8.660;2022-11-15T15:42:42;14.70;99.90
17341;DHT22;8788;49.930;8.660;2022-11-15T15:45:10;14.60;99.90
17341;DHT22;8788;49.930;8.660;2022-11-15T15:47:38;14.60;99.90
17341;DHT22;8788;49.930;8.660;2022-11-15T15:50:17;14.60;99.90
17341;DHT22;8788;49.930;8.660;2022-11-15T15:52:45;14.60;99.90
17341;DHT22;8788;49.930;8.660;2022-11-15T15:55:12;14.50;99.90
17341;DHT22;8788;49.930;8.660;2022-11-15T15:57:39;14.50;99.90
17341;DHT22;8788;49.930;8.660;2022-11-15T16:00:07;14.50;99.90
17341;DHT22;8788;49.930;8.660;2022-11-15T16:02:39;14.50;99.90
17341;DHT22;8788;49.930;8.660;2022-11-15T16:05:07;14.50;99.90
17341;DHT22;8788;49.930;8.660;2022-11-15T16:07:35;14.50;99.90
17341;DHT22;8788;49.930;8.660;2022-11-15T16:10:04;14.50;99.90
17341;DHT22;8788;49.930;8.660;2022-11-15T16:12:40;14.50;99.90
17341;DHT22;8788;49.930;8.660;2022-11-15T16:15:08;14.50;99.90
17341;DHT22;8788;49.930;8.660;2022-11-15T16:17:39;14.50;99.90
17341;DHT22;8788;49.930;8.660;2022-11-15T16:20:22;14.50;99.90
17341;DHT22;8788;49.930;8.660;2022-11-15T16:22:50;14.50;99.90
17341;DHT22;8788;49.930;8.660;2022-11-15T16:25:17;14.40;99.90
17341;DHT22;8788;49.930;8.660;2022-11-15T16:27:44;14.50;99.90
17341;DHT22;8788;49.930;8.660;2022-11-15T16:30:14;14.40;99.90
17341;DHT22;8788;49.930;8.660;2022-11-15T16:32:43;14.40;99.90
17341;DHT22;8788;49.930;8.660;2022-11-15T16:35:11;14.40;99.90
17341;DHT22;8788;49.930;8.660;2022-11-15T16:37:39;14.40;99.90
17341;DHT22;8788;49.930;8.660;2022-11-15T16:40:15;14.40;99.90
17341;DHT22;8788;49.930;8.660;2022-11-15T16:42:43;14.40;99.90
17341;DHT22;8788;49.930;8.660;2022-11-15T16:45:11;14.40;99.90
17341;DHT22;8788;49.930;8.660;2022-11-15T16:47:39;14.30;99.90
17341;DHT22;8788;49.930;8.660;2022-11-15T16:50:13;14.40;99.90
17341;DHT22;8788;49.930;8.660;2022-11-15T16:52:43;14.40;99.90
17341;DHT22;8788;49.930;8.660;2022-11-15T16:55:11;14.30;99.90
17341;DHT22;8788;49.930;8.660;2022-11-15T16:57:38;14.30;99.90
17341;DHT22;8788;49.930;8.660;2022-11-15T17:00:07;14.30;99.90
17341;DHT22;8788;49.930;8.660;2022-11-15T17:02:34;14.30;99.90
17341;DHT22;8788;49.930;8.660;2022-11-15T17:05:01;14.30;99.90
17341;DHT22;8788;49.930;8.660;2022-11-15T17:07:30;14.20;99.90
17341;DHT22;8788;49.930;8.660;2022-11-15T17:09:57;14.20;99.90
17341;DHT22;8788;49.930;8.660;2022-11-15T17:12:24;14.20;99.90
17341;DHT22;8788;49.930;8.660;2022-11-15T17:14:51;14.20;99.90
17341;DHT22;8788;49.930;8.660;2022-11-15T17:17:18;14.20;99.90
17341;DHT22;8788;49.930;8.660;2022-11-15T17:19:46;14.20;99.90
17341;DHT22;8788;49.930;8.660;2022-11-15T17:22:13;14.10;99.90
17341;DHT22;8788;49.930;8.660;2022-11-15T17:24:42;14.10;99.90
17341;DHT22;8788;49.930;8.660;2022-11-15T17:27:09;14.10;99.90
17341;DHT22;8788;49.930;8.660;2022-11-15T17:29:36;14.00;99.90
17341;DHT22;8788;49.930;8.660;2022-11-15T17:32:03;14.00;99.90
17341;DHT22;8788;49.930;8.660;2022-11-15T17:34:30;14.00;99.90
17341;DHT22;8788;49.930;8.660;2022-11-15T17:36:57;14.00;99.90
17341;DHT22;8788;49.930;8.660;2022-11-15T17:39:24;14.00;99.90
17341;DHT22;8788;49.930;8.660;2022-11-15T17:41:53;14.00;99.90
17341;DHT22;8788;49.930;8.660;2022-11-15T17:44:20;14.00;99.90
17341;DHT22;8788;49.930;8.660;2022-11-15T17:46:47;14.00;99.90
17341;DHT22;8788;49.930;8.660;2022-11-15T17:49:14;14.00;99.90
17341;DHT22;8788;49.930;8.660;2022-11-15T17:51:41;14.10;99.90
17341;DHT22;8788;49.930;8.660;2022-11-15T17:54:09;14.10;99.90
17341;DHT22;8788;49.930;8.660;2022-11-15T17:56:38;14.10;99.90
17341;DHT22;8788;49.930;8.660;2022-11-15T17:59:07;14.00;99.90
17341;DHT22;8788;49.930;8.660;2022-11-15T18:01:36;14.00;99.90
17341;DHT22;8788;49.930;8.660;2022-11-15T18:04:06;14.10;99.90
17341;DHT22;8788;49.930;8.660;2022-11-15T18:06:34;14.10;99.90
17341;DHT22;8788;49.930;8.660;2022-11-15T18:09:03;14.10;99.90
17341;DHT22;8788;49.930;8.660;2022-11-15T18:11:31;14.10;99.90
17341;DHT22;8788;49.930;8.660;2022-11-15T18:14:00;14.10;99.90
17341;DHT22;8788;49.930;8.660;2022-11-15T18:16:31;14.10;99.90
17341;DHT22;8788;49.930;8.660;2022-11-15T18:18:58;14.20;99.90
17341;DHT22;8788;49.930;8.660;2022-11-15T18:21:27;14.20;99.90
17341;DHT22;8788;49.930;8.660;2022-11-15T18:23:55;14.20;99.90
17341;DHT22;8788;49.930;8.660;2022-11-15T18:26:24;14.20;99.90
17341;DHT22;8788;49.930;8.660;2022-11-15T18:28:53;14.20;99.90
17341;DHT22;8788;49.930;8.660;2022-11-15T18:31:22;14.20;99.90
17341;DHT22;8788;49.930;8.660;2022-11-15T18:33:52;14.20;99.90
17341;DHT22;8788;49.930;8.660;2022-11-15T18:36:22;14.20;99.90
17341;DHT22;8788;49.930;8.660;2022-11-15T18:38:53;14.20;99.90
17341;DHT22;8788;49.930;8.660;2022-11-15T18:41:21;14.20;99.90
17341;DHT22;8788;49.930;8.660;2022-11-15T18:43:50;14.20;99.90
17341;DHT22;8788;49.930;8.660;2022-11-15T18:46:19;14.20;99.90
17341;DHT22;8788;49.930;8.660;2022-11-15T18:48:48;14.20;99.90
17341;DHT22;8788;49.930;8.660;2022-11-15T18:51:20;14.20;99.90
17341;DHT22;8788;49.930;8.660;2022-11-15T18:53:47;14.20;99.90
17341;DHT22;8788;49.930;8.660;2022-11-15T18:56:16;14.10;99.90
17341;DHT22;8788;49.930;8.660;2022-11-15T18:58:45;14.10;99.90
17341;DHT22;8788;49.930;8.660;2022-11-15T19:01:14;14.10;99.90
17341;DHT22;8788;49.930;8.660;2022-11-15T19:03:43;14.10;99.90
17341;DHT22;8788;49.930;8.660;2022-11-15T19:06:12;14.10;99.90
17341;DHT22;8788;49.930;8.660;2022-11-15T19:08:41;14.10;99.90
17341;DHT22;8788;49.930;8.660;2022-11-15T19:11:12;14.10;99.90
17341;DHT22;8788;49.930;8.660;2022-11-15T19:13:39;14.10;99.90
17341;DHT22;8788;49.930;8.660;2022-11-15T19:16:09;14.00;99.90
17341;DHT22;8788;49.930;8.660;2022-11-15T19:18:37;14.00;99.90
17341;DHT22;8788;49.930;8.660;2022-11-15T19:21:06;14.00;99.90
17341;DHT22;8788;49.930;8.660;2022-11-15T19:23:34;14.00;99.90
17341;DHT22;8788;49.930;8.660;2022-11-15T19:26:04;14.00;99.90
17341;DHT22;8788;49.930;8.660;2022-11-15T19:28:32;14.00;99.90
17341;DHT22;8788;49.930;8.660;2022-11-15T19:31:03;14.00;99.90
17341;DHT22;8788;49.930;8.660;2022-11-15T19:33:32;14.00;99.90
17341;DHT22;8788;49.930;8.660;2022-11-15T19:36:00;14.00;99.90
17341;DHT22;8788;49.930;8.660;2022-11-15T19:38:29;14.00;99.90
17341;DHT22;8788;49.930;8.660;2022-11-15T19:40:57;14.00;99.90
17341;DHT22;8788;49.930;8.660;2022-11-15T19:43:27;13.90;99.90
17341;DHT22;8788;49.930;8.660;2022-11-15T19:45:54;14.00;99.90
17341;DHT22;8788;49.930;8.660;2022-11-15T19:48:21;14.00;99.90
17341;DHT22;8788;49.930;8.660;2022-11-15T19:50:49;14.00;99.90
17341;DHT22;8788;49.930;8.660;2022-11-15T19:53:17;14.00;99.90
17341;DHT22;8788;49.930;8.660;2022-11-15T19:55:53;14.00;99.90
17341;DHT22;8788;49.930;8.660;2022-11-15T19:58:20;14.00;99.90
17341;DHT22;8788;49.930;8.660;2022-11-15T20:00:49;14.00;99.90
17341;DHT22;8788;49.930;8.660;2022-11-15T20:03:17;13.90;99.90
17341;DHT22;8788;49.930;8.660;2022-11-15T20:05:44;13.90;99.90
17341;DHT22;8788;49.930;8.660;2022-11-15T20:08:11;13.90;99.90
17341;DHT22;8788;49.930;8.660;2022-11-15T20:10:38;13.90;99.90
17341;DHT22;8788;49.930;8.660;2022-11-15T20:13:05;13.90;99.90
17341;DHT22;8788;49.930;8.660;2022-11-15T20:15:32;13.90;99.90
17341;DHT22;8788;49.930;8.660;2022-11-15T20:18:01;13.90;99.90
17341;DHT22;8788;49.930;8.660;2022-11-15T20:20:28;13.90;99.90
17341;DHT22;8788;49.930;8.660;2022-11-15T20:22:55;13.90;99.90
17341;DHT22;8788;49.930;8.660;2022-11-15T20:25:22;13.90;99.90
17341;DHT22;8788;49.930;8.660;2022-11-15T20:27:49;13.80;99.90
17341;DHT22;8788;49.930;8.660;2022-11-15T20:30:17;13.80;99.90
17341;DHT22;8788;49.930;8.660;2022-11-15T20:32:44;13.80;99.90
17341;DHT22;8788;49.930;8.660;2022-11-15T20:35:13;13.80;99.90
17341;DHT22;8788;49.930;8.660;2022-11-15T20:37:40;13.80;99.90
17341;DHT22;8788;49.930;8.660;2022-11-15T20:40:08;13.80;99.90
17341;DHT22;8788;49.930;8.660;2022-11-15T20:42:35;13.80;99.90
17341;DHT22;8788;49.930;8.660;2022-11-15T20:45:02;13.80;99.90
17341;DHT22;8788;49.930;8.660;2022-11-15T20:47:29;13.80;99.90
17341;DHT22;8788;49.930;8.660;2022-11-15T20:49:56;13.80;99.90
17341;DHT22;8788;49.930;8.660;2022-11-15T20:52:25;13.70;99.90
17341;DHT22;8788;49.930;8.660;2022-11-15T20:54:52;13.70;99.90
17341;DHT22;8788;49.930;8.660;2022-11-15T20:57:19;13.70;99.90
17341;DHT22;8788;49.930;8.660;2022-11-15T20:59:46;13.70;99.90
17341;DHT22;8788;49.930;8.660;2022-11-15T21:02:14;13.70;99.90
17341;DHT22;8788;49.930;8.660;2022-11-15T21:04:41;13.70;99.90
17341;DHT22;8788;49.930;8.660;2022-11-15T21:07:08;13.70;99.90
17341;DHT22;8788;49.930;8.660;2022-11-15T21:09:36;13.70;99.90